Pablo, Montana
Current Conditions -  °F | °C
As of 2:53 PM on Sunday 23 Nov 2014 (Local Time) from KMSO Reporting Station
Overcast Overcast  
Wind Chill: 31°   Ceiling: 8000
Heat Index: 38°   Visibility: 10mi
Dew Point: 28°   Wind: 9mph
Humidity: 68%   Direction: 160°SSE
Pressure: 30.01"   Gusts: NA
Location:  47.59°N, 114.12°W
Report Text: KMSO 232153Z 16008KT 10SM FEW060 OVC080 03/M02 A3001 RMK AO2 SLP185 T00331022
Loading
Personal Weather Stations






























Interactive Weather Map New forecast layout! Learn more

10-Day Weather Forecast

Advertisements
Track Severe Weather on mobile